createdAt,value
2023-03-03T00:00:35.496Z,85.90
2023-03-03T00:03:37.761Z,85.70
2023-03-03T00:06:39.924Z,85.90
2023-03-03T00:09:42.234Z,87.40
2023-03-03T00:12:50.344Z,87.10
2023-03-03T00:15:53.612Z,86.60
2023-03-03T00:18:56.678Z,86.50
2023-03-03T00:21:59.219Z,87.10
2023-03-03T00:25:30.508Z,87.20
2023-03-03T00:28:49.962Z,87.40
2023-03-03T00:31:52.293Z,87.60
2023-03-03T00:34:57.178Z,87.70
2023-03-03T00:38:18.879Z,87.70
2023-03-03T00:41:25.703Z,87.60
2023-03-03T00:44:42.642Z,87.30
2023-03-03T00:47:44.947Z,87.80
2023-03-03T00:50:47.420Z,87.90
2023-03-03T00:53:50.126Z,87.60
2023-03-03T00:56:52.222Z,88.00
2023-03-03T00:59:54.368Z,87.80
2023-03-03T01:02:56.815Z,88.60
2023-03-03T01:05:59.245Z,88.60
2023-03-03T01:09:04.714Z,88.00
2023-03-03T01:12:07.927Z,88.20
2023-03-03T01:15:13.144Z,87.90
2023-03-03T01:18:15.924Z,88.00
2023-03-03T01:21:18.143Z,88.70
2023-03-03T01:24:20.378Z,88.20
2023-03-03T01:27:22.509Z,88.00
2023-03-03T01:30:24.940Z,88.00
2023-03-03T01:33:27.132Z,87.70
2023-03-03T01:36:29.853Z,87.20
2023-03-03T01:39:32.113Z,87.60
2023-03-03T01:42:34.437Z,87.50
2023-03-03T01:45:48.594Z,88.00
2023-03-03T01:48:52.842Z,88.30
2023-03-03T01:51:58.791Z,88.80
2023-03-03T01:55:06.504Z,89.00
2023-03-03T01:58:14.554Z,88.60
2023-03-03T02:01:21.351Z,88.00
2023-03-03T02:04:23.773Z,88.10
2023-03-03T02:07:28.420Z,89.60
2023-03-03T02:10:31.693Z,89.10
2023-03-03T02:13:35.438Z,89.10
2023-03-03T02:16:37.654Z,89.00
2023-03-03T02:20:09.291Z,89.10
2023-03-03T02:23:37.696Z,89.30
2023-03-03T02:26:41.683Z,88.90
2023-03-03T02:29:43.896Z,89.00
2023-03-03T02:32:46.122Z,89.20
2023-03-03T02:35:51.993Z,89.40
2023-03-03T02:39:16.519Z,90.00
2023-03-03T02:42:27.854Z,90.10
2023-03-03T02:45:43.565Z,90.20
2023-03-03T02:48:46.810Z,90.20
2023-03-03T02:51:49.965Z,90.40
2023-03-03T02:54:52.020Z,90.60
2023-03-03T02:57:54.149Z,90.50
2023-03-03T03:00:56.343Z,90.40
2023-03-03T03:04:01.333Z,90.80
2023-03-03T03:07:03.881Z,90.80
2023-03-03T03:10:06.464Z,91.10
2023-03-03T03:13:08.746Z,90.70
2023-03-03T03:16:10.865Z,90.80
2023-03-03T03:19:13.880Z,90.70
2023-03-03T03:22:16.117Z,90.70
2023-03-03T03:25:19.133Z,91.00
2023-03-03T03:28:21.330Z,91.20
2023-03-03T03:31:23.590Z,91.60
2023-03-03T03:34:25.838Z,91.40
2023-03-03T03:37:28.151Z,91.40
2023-03-03T03:40:30.583Z,91.40
2023-03-03T03:43:33.266Z,91.20
2023-03-03T03:46:35.531Z,91.20
2023-03-03T03:49:37.805Z,91.50
2023-03-03T03:52:39.985Z,91.60
2023-03-03T03:55:42.133Z,91.70
2023-03-03T03:58:44.544Z,92.00
2023-03-03T04:01:48.297Z,91.80
2023-03-03T04:04:50.544Z,91.90
2023-03-03T04:07:52.733Z,92.10
2023-03-03T04:10:54.898Z,92.60
2023-03-03T04:13:58.518Z,92.50
2023-03-03T04:17:00.719Z,92.50
2023-03-03T04:20:03.699Z,92.30
2023-03-03T04:23:05.859Z,92.40
2023-03-03T04:26:08.699Z,92.50
2023-03-03T04:29:12.597Z,92.50
2023-03-03T04:32:14.756Z,92.30
2023-03-03T04:35:17.697Z,92.50
2023-03-03T04:38:19.981Z,92.50
2023-03-03T04:41:22.147Z,92.60
2023-03-03T04:44:24.388Z,92.90
2023-03-03T04:47:26.743Z,92.70
2023-03-03T04:50:29.162Z,92.60
2023-03-03T04:53:31.465Z,92.70
2023-03-03T04:56:33.661Z,93.50
2023-03-03T04:59:36.418Z,93.90
2023-03-03T05:02:38.746Z,93.60
2023-03-03T05:05:41.592Z,93.90
2023-03-03T05:08:43.743Z,94.10
2023-03-03T05:11:45.891Z,94.10
2023-03-03T05:14:48.539Z,93.80
2023-03-03T05:17:53.651Z,93.50
2023-03-03T05:20:55.696Z,94.10
2023-03-03T05:23:57.831Z,93.60
2023-03-03T05:27:01.326Z,93.70
2023-03-03T05:30:03.878Z,94.10
2023-03-03T05:33:06.804Z,95.40
2023-03-03T05:36:09.220Z,94.70
2023-03-03T05:39:11.423Z,94.90
2023-03-03T05:42:16.380Z,94.90
2023-03-03T05:45:21.943Z,95.10
2023-03-03T05:48:24.243Z,94.80
2023-03-03T05:51:26.600Z,94.90
2023-03-03T05:54:28.888Z,95.10
2023-03-03T05:57:31.766Z,94.90
2023-03-03T06:00:33.979Z,94.80
2023-03-03T06:03:37.064Z,94.60
2023-03-03T06:06:39.225Z,94.60
2023-03-03T06:09:41.535Z,94.40
2023-03-03T06:12:44.934Z,94.40
2023-03-03T06:15:47.420Z,94.50
2023-03-03T06:18:49.596Z,94.60
2023-03-03T06:21:51.743Z,94.80
2023-03-03T06:24:53.997Z,94.70
2023-03-03T06:27:56.202Z,94.50
2023-03-03T06:30:58.728Z,94.40
2023-03-03T06:34:00.929Z,94.30
2023-03-03T06:37:05.072Z,94.40
2023-03-03T06:40:08.103Z,94.30
2023-03-03T06:43:10.312Z,94.20
2023-03-03T06:46:12.707Z,94.40
2023-03-03T06:49:15.205Z,94.30
2023-03-03T06:52:24.678Z,94.80
2023-03-03T06:55:27.861Z,94.50
2023-03-03T06:58:30.022Z,94.60
2023-03-03T07:01:36.750Z,94.70
2023-03-03T07:04:39.679Z,94.50
2023-03-03T07:07:41.890Z,94.40
2023-03-03T07:10:45.078Z,94.40
2023-03-03T07:13:55.590Z,94.40
2023-03-03T07:17:05.318Z,94.60
2023-03-03T07:20:20.728Z,94.60
2023-03-03T07:23:28.112Z,94.50
2023-03-03T07:26:33.222Z,95.20
2023-03-03T07:29:38.038Z,95.00
2023-03-03T07:32:45.800Z,94.60
2023-03-03T07:35:48.301Z,95.00
2023-03-03T07:38:55.097Z,93.70
2023-03-03T07:42:20.409Z,93.60
2023-03-03T07:45:31.349Z,91.30
2023-03-03T07:48:40.395Z,91.80
2023-03-03T07:51:42.618Z,88.90
2023-03-03T07:54:46.261Z,85.10
2023-03-03T07:57:51.981Z,83.40
2023-03-03T08:01:31.681Z,81.20
2023-03-03T08:04:44.312Z,79.90
2023-03-03T08:07:46.536Z,80.10
2023-03-03T08:10:51.160Z,76.40
2023-03-03T08:13:53.389Z,74.00
2023-03-03T08:16:59.211Z,72.10
2023-03-03T08:20:08.870Z,70.70
2023-03-03T08:23:12.204Z,69.40
2023-03-03T08:26:15.241Z,68.00
2023-03-03T08:29:17.371Z,65.90
2023-03-03T08:32:20.028Z,64.70
2023-03-03T08:35:22.281Z,63.30
2023-03-03T08:38:24.762Z,61.00
2023-03-03T08:41:27.064Z,59.20
2023-03-03T08:44:29.198Z,56.40
2023-03-03T08:47:31.534Z,56.00
2023-03-03T08:50:35.068Z,52.00
2023-03-03T08:53:38.454Z,49.40
2023-03-03T08:56:40.777Z,48.30
2023-03-03T08:59:43.780Z,48.20
2023-03-03T09:02:46.636Z,48.60
2023-03-03T09:05:48.807Z,48.90
2023-03-03T09:08:51.216Z,47.10
2023-03-03T09:12:03.772Z,47.40
2023-03-03T09:15:30.905Z,48.70
2023-03-03T09:18:37.763Z,45.50
2023-03-03T09:21:42.504Z,41.20
2023-03-03T09:24:46.432Z,42.40
2023-03-03T09:27:48.669Z,42.50
2023-03-03T09:30:53.804Z,39.70
2023-03-03T09:33:58.040Z,39.00
2023-03-03T09:37:00.429Z,38.50
2023-03-03T09:40:37.828Z,38.30
2023-03-03T09:44:17.464Z,38.50
2023-03-03T09:47:48.339Z,41.30
2023-03-03T09:51:11.032Z,39.10
2023-03-03T09:54:18.305Z,36.00
2023-03-03T09:57:32.552Z,35.10
2023-03-03T10:00:37.553Z,36.00
2023-03-03T10:03:48.930Z,36.40
2023-03-03T10:07:17.373Z,36.70
2023-03-03T10:10:49.268Z,32.90
2023-03-03T10:14:18.857Z,31.90
2023-03-03T10:17:21.945Z,32.00
2023-03-03T10:20:51.161Z,30.50
2023-03-03T10:24:14.128Z,28.70
2023-03-03T10:27:54.942Z,32.80
2023-03-03T10:31:28.340Z,33.20
2023-03-03T10:34:54.651Z,34.80
2023-03-03T10:38:18.403Z,36.90
2023-03-03T10:41:32.613Z,34.70
2023-03-03T10:45:06.122Z,34.40
2023-03-03T10:48:20.264Z,35.60
2023-03-03T10:51:48.584Z,33.80
2023-03-03T10:55:30.079Z,33.40
2023-03-03T10:58:41.351Z,31.70
2023-03-03T11:01:52.614Z,29.50
2023-03-03T11:04:57.784Z,31.00
2023-03-03T11:08:10.897Z,30.30
2023-03-03T11:11:18.713Z,30.20
2023-03-03T11:14:36.977Z,28.10
2023-03-03T11:18:13.030Z,28.70
2023-03-03T11:21:38.883Z,28.80
2023-03-03T11:24:51.272Z,28.50
2023-03-03T11:28:24.282Z,28.80
2023-03-03T11:31:32.271Z,29.00
2023-03-03T11:35:20.698Z,29.40
2023-03-03T11:38:40.869Z,30.80
2023-03-03T11:42:11.842Z,33.10
2023-03-03T11:45:21.053Z,33.60
2023-03-03T11:48:53.972Z,30.80
2023-03-03T11:52:34.599Z,30.10
2023-03-03T11:55:38.953Z,30.30
2023-03-03T11:59:01.406Z,32.30
2023-03-03T12:02:15.248Z,33.90
2023-03-03T12:05:46.644Z,34.60
2023-03-03T12:09:22.168Z,38.20
2023-03-03T12:12:36.119Z,39.70
2023-03-03T12:15:41.243Z,42.60
2023-03-03T12:19:30.753Z,46.70
2023-03-03T12:23:07.367Z,47.20
2023-03-03T12:26:29.952Z,48.80
2023-03-03T12:29:51.446Z,49.20
2023-03-03T12:33:43.584Z,48.90
2023-03-03T12:37:05.741Z,49.20
2023-03-03T12:40:31.859Z,50.80
2023-03-03T12:43:36.754Z,49.80
2023-03-03T12:47:09.022Z,50.20
2023-03-03T12:50:11.424Z,50.50
2023-03-03T12:53:27.158Z,51.40
2023-03-03T12:56:32.299Z,51.90
2023-03-03T12:59:34.399Z,53.80
2023-03-03T13:02:50.825Z,55.30
2023-03-03T13:06:17.986Z,55.50
2023-03-03T13:09:40.886Z,56.20
2023-03-03T13:12:51.916Z,56.20
2023-03-03T13:16:06.879Z,57.00
2023-03-03T13:19:35.535Z,58.10
2023-03-03T13:22:55.728Z,58.90
2023-03-03T13:26:09.877Z,60.30
2023-03-03T13:29:30.476Z,59.30
2023-03-03T13:32:43.030Z,60.00
2023-03-03T13:35:50.201Z,59.10
2023-03-03T13:38:57.757Z,57.90
2023-03-03T13:42:09.292Z,57.90
2023-03-03T13:45:37.339Z,56.60
2023-03-03T13:49:07.670Z,51.80
2023-03-03T13:52:21.459Z,53.80
2023-03-03T13:55:32.630Z,55.00
2023-03-03T13:58:41.567Z,57.60
2023-03-03T14:01:53.016Z,58.10
2023-03-03T14:05:04.845Z,58.60
2023-03-03T14:08:12.680Z,59.70
2023-03-03T14:11:40.160Z,60.00
2023-03-03T14:15:04.738Z,60.30
2023-03-03T14:18:25.604Z,58.00
2023-03-03T14:21:42.718Z,53.60
2023-03-03T14:25:00.451Z,54.60
2023-03-03T14:28:14.224Z,55.40
2023-03-03T14:31:22.152Z,54.90
2023-03-03T14:34:24.346Z,54.30
2023-03-03T14:37:28.250Z,55.60
2023-03-03T14:40:39.390Z,57.00
2023-03-03T14:43:45.500Z,58.00
2023-03-03T14:47:10.393Z,58.10
2023-03-03T14:50:35.706Z,58.30
2023-03-03T14:53:39.162Z,58.20
2023-03-03T14:56:59.450Z,58.30
2023-03-03T15:00:33.003Z,58.70
2023-03-03T15:03:39.575Z,59.30
2023-03-03T15:06:58.987Z,59.20
2023-03-03T15:10:08.952Z,57.30
2023-03-03T15:13:20.282Z,56.20
2023-03-03T15:16:31.876Z,57.50
2023-03-03T15:19:47.806Z,58.30
2023-03-03T15:22:58.927Z,59.10
2023-03-03T15:26:27.572Z,58.60
2023-03-03T15:30:02.238Z,59.40
2023-03-03T15:33:26.740Z,58.30
2023-03-03T15:36:54.037Z,58.00
2023-03-03T15:40:14.766Z,57.20
2023-03-03T15:43:19.829Z,56.90
2023-03-03T15:46:43.205Z,56.10
2023-03-03T15:50:06.306Z,56.00
2023-03-03T15:53:20.334Z,56.30
2023-03-03T15:56:25.645Z,56.90
2023-03-03T15:59:46.750Z,57.10
2023-03-03T16:03:05.444Z,58.00
2023-03-03T16:06:16.588Z,59.60
2023-03-03T16:09:37.542Z,62.20
2023-03-03T16:12:58.340Z,64.60
2023-03-03T16:16:12.552Z,65.10
2023-03-03T16:19:32.157Z,65.20
2023-03-03T16:22:37.367Z,65.80
2023-03-03T16:25:45.553Z,66.50
2023-03-03T16:29:23.812Z,66.40
2023-03-03T16:33:06.730Z,67.30
2023-03-03T16:36:18.523Z,67.80
2023-03-03T16:39:45.507Z,68.20
2023-03-03T16:42:52.997Z,69.70
2023-03-03T16:46:05.682Z,69.40
2023-03-03T16:49:20.582Z,69.80
2023-03-03T16:52:36.727Z,70.40
2023-03-03T16:56:14.136Z,70.70
2023-03-03T16:59:25.141Z,70.30
2023-03-03T17:02:53.439Z,71.60
2023-03-03T17:06:21.461Z,71.80
2023-03-03T17:09:33.208Z,72.40
2023-03-03T17:12:41.702Z,72.20
2023-03-03T17:16:11.188Z,72.20
2023-03-03T17:19:16.480Z,72.30
2023-03-03T17:22:39.538Z,73.10
2023-03-03T17:25:53.940Z,73.40
2023-03-03T17:29:37.413Z,74.20
2023-03-03T17:32:57.718Z,75.10
2023-03-03T17:36:09.954Z,76.00
2023-03-03T17:39:53.989Z,75.60
2023-03-03T17:43:11.684Z,76.20
2023-03-03T17:46:41.720Z,76.70
2023-03-03T17:50:01.719Z,77.20
2023-03-03T17:53:24.335Z,77.20
2023-03-03T17:56:50.223Z,76.30
2023-03-03T18:00:01.331Z,76.20
2023-03-03T18:03:21.906Z,75.90
2023-03-03T18:06:55.776Z,75.90
2023-03-03T18:10:06.829Z,76.00
2023-03-03T18:13:36.960Z,76.60
2023-03-03T18:17:00.554Z,75.90
2023-03-03T18:20:17.989Z,75.40
2023-03-03T18:23:44.049Z,76.00
2023-03-03T18:26:46.317Z,77.30
2023-03-03T18:30:20.624Z,78.00
2023-03-03T18:34:02.793Z,77.60
2023-03-03T18:37:10.915Z,77.80
2023-03-03T18:40:18.118Z,78.30
2023-03-03T18:43:45.161Z,78.20
2023-03-03T18:46:50.659Z,79.70
2023-03-03T18:50:30.330Z,79.70
2023-03-03T18:53:36.160Z,80.30
2023-03-03T18:57:15.247Z,80.10
2023-03-03T19:00:28.321Z,80.10
2023-03-03T19:03:47.239Z,80.00
2023-03-03T19:06:49.894Z,80.50
2023-03-03T19:10:04.443Z,81.00
2023-03-03T19:13:32.507Z,79.70
2023-03-03T19:16:37.539Z,80.10
2023-03-03T19:20:01.588Z,80.50
2023-03-03T19:23:12.622Z,79.40
2023-03-03T19:26:29.802Z,80.10
2023-03-03T19:29:46.853Z,80.40
2023-03-03T19:33:16.445Z,80.00
2023-03-03T19:36:38.403Z,80.40
2023-03-03T19:40:13.941Z,81.50
2023-03-03T19:43:40.059Z,81.60
2023-03-03T19:46:51.195Z,81.30
2023-03-03T19:50:06.472Z,81.40
2023-03-03T19:53:11.551Z,82.00
2023-03-03T19:56:46.192Z,81.00
2023-03-03T20:00:29.462Z,81.70
2023-03-03T20:04:05.446Z,82.10
2023-03-03T20:07:22.869Z,83.30
2023-03-03T20:10:48.256Z,81.20
2023-03-03T20:13:53.059Z,82.50
2023-03-03T20:16:59.136Z,81.50
2023-03-03T20:20:08.590Z,82.60
2023-03-03T20:23:38.227Z,82.20
2023-03-03T20:27:15.226Z,81.80
2023-03-03T20:30:31.140Z,82.60
2023-03-03T20:34:00.485Z,83.40
2023-03-03T20:37:14.820Z,83.40
2023-03-03T20:40:31.099Z,84.50
2023-03-03T20:43:51.538Z,84.40
2023-03-03T20:47:17.679Z,85.80
2023-03-03T20:50:48.705Z,84.80
2023-03-03T20:54:09.510Z,84.30
2023-03-03T20:57:39.099Z,84.30
2023-03-03T21:01:07.721Z,85.30
2023-03-03T21:04:22.973Z,85.20
2023-03-03T21:07:26.747Z,84.10
2023-03-03T21:10:35.775Z,84.20
2023-03-03T21:13:44.452Z,85.10
2023-03-03T21:16:47.222Z,85.50
2023-03-03T21:19:49.454Z,86.20
2023-03-03T21:22:52.300Z,85.90
2023-03-03T21:25:56.629Z,86.10
2023-03-03T21:29:03.597Z,86.70
2023-03-03T21:32:09.193Z,86.40
2023-03-03T21:35:17.104Z,86.40
2023-03-03T21:38:40.237Z,86.50
2023-03-03T21:41:57.098Z,86.60
2023-03-03T21:45:10.423Z,87.40
2023-03-03T21:48:12.633Z,87.30
2023-03-03T21:51:15.095Z,87.20
2023-03-03T21:54:17.266Z,87.00
2023-03-03T21:57:19.645Z,87.60
2023-03-03T22:00:22.032Z,87.50
2023-03-03T22:03:24.215Z,86.90
2023-03-03T22:06:26.777Z,87.40
2023-03-03T22:09:28.971Z,88.20
2023-03-03T22:12:31.381Z,88.10
2023-03-03T22:15:34.110Z,88.50
2023-03-03T22:18:36.313Z,88.70
2023-03-03T22:21:39.512Z,88.00
2023-03-03T22:24:42.189Z,87.90
2023-03-03T22:27:44.311Z,88.10
2023-03-03T22:30:46.509Z,88.10
2023-03-03T22:33:49.346Z,88.00
2023-03-03T22:36:51.420Z,88.20
2023-03-03T22:39:53.538Z,87.80
2023-03-03T22:42:55.953Z,87.10
2023-03-03T22:45:58.307Z,87.30
2023-03-03T22:49:00.446Z,86.90
2023-03-03T22:52:02.858Z,87.30
2023-03-03T22:55:05.584Z,86.80
2023-03-03T22:58:09.627Z,86.50
2023-03-03T23:01:11.865Z,86.20
2023-03-03T23:04:14.117Z,86.80
2023-03-03T23:07:16.337Z,87.30
2023-03-03T23:10:19.444Z,87.60
2023-03-03T23:13:21.749Z,86.90
2023-03-03T23:16:23.978Z,86.60
2023-03-03T23:19:26.211Z,87.50
2023-03-03T23:22:30.139Z,88.00
2023-03-03T23:25:32.410Z,88.10
2023-03-03T23:28:34.621Z,88.10
2023-03-03T23:31:36.847Z,87.60
2023-03-03T23:34:39.116Z,88.10
2023-03-03T23:37:41.425Z,87.40
2023-03-03T23:40:44.064Z,87.60
2023-03-03T23:43:46.399Z,87.60
2023-03-03T23:46:48.776Z,87.10
2023-03-03T23:49:50.987Z,87.50
2023-03-03T23:52:53.190Z,87.60
2023-03-03T23:55:55.562Z,87.40
2023-03-03T23:58:58.784Z,87.40
